sensor_id;sensor_type;location;lat;lon;timestamp;temperature;humidity
37754;DHT22;23596;52.520;13.464;2023-04-03T00:01:27;2.40;99.90
37754;DHT22;23596;52.520;13.464;2023-04-03T00:03:53;2.40;99.90
37754;DHT22;23596;52.520;13.464;2023-04-03T00:06:20;2.40;99.90
37754;DHT22;23596;52.520;13.464;2023-04-03T00:08:46;2.30;99.90
37754;DHT22;23596;52.520;13.464;2023-04-03T00:11:11;2.40;99.90
37754;DHT22;23596;52.520;13.464;2023-04-03T00:13:38;2.30;99.90
37754;DHT22;23596;52.520;13.464;2023-04-03T00:16:04;2.50;99.90
37754;DHT22;23596;52.520;13.464;2023-04-03T00:18:30;2.40;99.90
37754;DHT22;23596;52.520;13.464;2023-04-03T00:20:56;2.30;99.90
37754;DHT22;23596;52.520;13.464;2023-04-03T00:23:22;2.30;99.90
37754;DHT22;23596;52.520;13.464;2023-04-03T00:25:49;2.30;99.90
37754;DHT22;23596;52.520;13.464;2023-04-03T00:28:15;2.20;99.90
37754;DHT22;23596;52.520;13.464;2023-04-03T00:30:40;2.20;99.90
37754;DHT22;23596;52.520;13.464;2023-04-03T00:33:06;2.20;99.90
37754;DHT22;23596;52.520;13.464;2023-04-03T00:35:33;2.20;99.90
37754;DHT22;23596;52.520;13.464;2023-04-03T00:37:59;2.20;99.90
37754;DHT22;23596;52.520;13.464;2023-04-03T00:40:27;2.20;99.90
37754;DHT22;23596;52.520;13.464;2023-04-03T00:42:57;2.20;99.90
37754;DHT22;23596;52.520;13.464;2023-04-03T00:47:58;2.10;99.90
37754;DHT22;23596;52.520;13.464;2023-04-03T00:50:27;2.00;99.90
37754;DHT22;23596;52.520;13.464;2023-04-03T00:52:54;2.00;99.90
37754;DHT22;23596;52.520;13.464;2023-04-03T00:55:21;2.30;99.90
37754;DHT22;23596;52.520;13.464;2023-04-03T00:57:47;1.90;99.90
37754;DHT22;23596;52.520;13.464;2023-04-03T01:00:17;2.00;99.90
37754;DHT22;23596;52.520;13.464;2023-04-03T01:02:44;2.00;99.90
37754;DHT22;23596;52.520;13.464;2023-04-03T01:05:10;1.90;99.90
37754;DHT22;23596;52.520;13.464;2023-04-03T01:07:36;1.90;99.90
37754;DHT22;23596;52.520;13.464;2023-04-03T01:10:08;1.90;99.90
37754;DHT22;23596;52.520;13.464;2023-04-03T01:12:37;1.90;99.90
37754;DHT22;23596;52.520;13.464;2023-04-03T01:15:12;1.90;99.90
37754;DHT22;23596;52.520;13.464;2023-04-03T01:25:49;1.80;99.90
37754;DHT22;23596;52.520;13.464;2023-04-03T01:33:33;1.80;99.90
37754;DHT22;23596;52.520;13.464;2023-04-03T01:35:59;1.80;99.90
37754;DHT22;23596;52.520;13.464;2023-04-03T01:38:25;1.80;99.90
37754;DHT22;23596;52.520;13.464;2023-04-03T01:40:51;1.80;99.90
37754;DHT22;23596;52.520;13.464;2023-04-03T01:43:16;1.80;99.90
37754;DHT22;23596;52.520;13.464;2023-04-03T01:45:42;1.80;99.90
37754;DHT22;23596;52.520;13.464;2023-04-03T01:48:07;1.80;99.90
37754;DHT22;23596;52.520;13.464;2023-04-03T01:50:33;1.80;99.90
37754;DHT22;23596;52.520;13.464;2023-04-03T01:52:59;1.80;99.90
37754;DHT22;23596;52.520;13.464;2023-04-03T01:55:25;1.70;99.90
37754;DHT22;23596;52.520;13.464;2023-04-03T01:57:50;1.70;99.90
37754;DHT22;23596;52.520;13.464;2023-04-03T02:00:16;1.70;99.90
37754;DHT22;23596;52.520;13.464;2023-04-03T02:02:42;1.70;99.90
37754;DHT22;23596;52.520;13.464;2023-04-03T02:05:08;1.70;99.90
37754;DHT22;23596;52.520;13.464;2023-04-03T02:07:33;1.60;99.90
37754;DHT22;23596;52.520;13.464;2023-04-03T02:09:59;1.70;99.90
37754;DHT22;23596;52.520;13.464;2023-04-03T02:12:25;2.60;99.90
37754;DHT22;23596;52.520;13.464;2023-04-03T02:14:50;1.60;99.90
37754;DHT22;23596;52.520;13.464;2023-04-03T02:17:16;1.50;99.90
37754;DHT22;23596;52.520;13.464;2023-04-03T02:19:41;1.60;99.90
37754;DHT22;23596;52.520;13.464;2023-04-03T02:22:07;1.50;99.90
37754;DHT22;23596;52.520;13.464;2023-04-03T02:24:33;1.50;99.90
37754;DHT22;23596;52.520;13.464;2023-04-03T02:26:59;1.50;99.90
37754;DHT22;23596;52.520;13.464;2023-04-03T02:29:24;2.10;99.90
37754;DHT22;23596;52.520;13.464;2023-04-03T02:31:50;1.50;99.90
37754;DHT22;23596;52.520;13.464;2023-04-03T02:34:17;1.50;99.90
37754;DHT22;23596;52.520;13.464;2023-04-03T02:36:42;1.40;99.90
37754;DHT22;23596;52.520;13.464;2023-04-03T02:39:08;1.50;99.90
37754;DHT22;23596;52.520;13.464;2023-04-03T02:41:34;1.50;99.90
37754;DHT22;23596;52.520;13.464;2023-04-03T02:44:03;1.40;99.90
37754;DHT22;23596;52.520;13.464;2023-04-03T02:46:29;1.40;99.90
37754;DHT22;23596;52.520;13.464;2023-04-03T02:48:55;1.30;99.90
37754;DHT22;23596;52.520;13.464;2023-04-03T02:51:20;1.30;99.90
37754;DHT22;23596;52.520;13.464;2023-04-03T02:53:46;1.20;99.90
37754;DHT22;23596;52.520;13.464;2023-04-03T02:56:12;1.30;99.90
37754;DHT22;23596;52.520;13.464;2023-04-03T02:58:37;1.20;99.90
37754;DHT22;23596;52.520;13.464;2023-04-03T03:01:04;1.20;99.90
37754;DHT22;23596;52.520;13.464;2023-04-03T03:03:30;1.10;99.90
37754;DHT22;23596;52.520;13.464;2023-04-03T03:06:12;1.20;99.90
37754;DHT22;23596;52.520;13.464;2023-04-03T03:08:39;1.10;99.90
37754;DHT22;23596;52.520;13.464;2023-04-03T03:11:05;1.10;99.90
37754;DHT22;23596;52.520;13.464;2023-04-03T03:13:31;1.00;99.90
37754;DHT22;23596;52.520;13.464;2023-04-03T03:15:56;1.10;99.90
37754;DHT22;23596;52.520;13.464;2023-04-03T03:18:22;1.00;99.90
37754;DHT22;23596;52.520;13.464;2023-04-03T03:20:52;1.00;99.90
37754;DHT22;23596;52.520;13.464;2023-04-03T03:23:18;0.90;99.90
37754;DHT22;23596;52.520;13.464;2023-04-03T03:25:44;0.90;99.90
37754;DHT22;23596;52.520;13.464;2023-04-03T03:28:09;0.90;99.90
37754;DHT22;23596;52.520;13.464;2023-04-03T03:30:35;0.90;99.90
37754;DHT22;23596;52.520;13.464;2023-04-03T03:33:01;0.90;99.90
37754;DHT22;23596;52.520;13.464;2023-04-03T03:35:26;0.90;99.90
37754;DHT22;23596;52.520;13.464;2023-04-03T03:37:52;0.90;99.90
37754;DHT22;23596;52.520;13.464;2023-04-03T03:40:18;0.90;99.90
37754;DHT22;23596;52.520;13.464;2023-04-03T03:42:43;0.90;99.90
37754;DHT22;23596;52.520;13.464;2023-04-03T03:45:09;1.00;99.90
37754;DHT22;23596;52.520;13.464;2023-04-03T03:47:35;0.90;99.90
37754;DHT22;23596;52.520;13.464;2023-04-03T03:50:01;0.90;99.90
37754;DHT22;23596;52.520;13.464;2023-04-03T03:52:27;1.50;99.90
37754;DHT22;23596;52.520;13.464;2023-04-03T03:54:53;0.90;99.90
37754;DHT22;23596;52.520;13.464;2023-04-03T03:57:18;2.40;99.90
37754;DHT22;23596;52.520;13.464;2023-04-03T03:59:44;0.90;99.90
37754;DHT22;23596;52.520;13.464;2023-04-03T04:02:10;0.90;99.90
37754;DHT22;23596;52.520;13.464;2023-04-03T04:04:36;0.80;99.90
37754;DHT22;23596;52.520;13.464;2023-04-03T04:07:03;0.80;99.90
37754;DHT22;23596;52.520;13.464;2023-04-03T04:09:28;0.70;99.90
37754;DHT22;23596;52.520;13.464;2023-04-03T04:11:54;0.70;99.90
37754;DHT22;23596;52.520;13.464;2023-04-03T04:14:20;0.70;99.90
37754;DHT22;23596;52.520;13.464;2023-04-03T04:16:46;0.70;99.90
37754;DHT22;23596;52.520;13.464;2023-04-03T04:19:13;0.90;99.90
37754;DHT22;23596;52.520;13.464;2023-04-03T04:21:38;0.70;99.90
37754;DHT22;23596;52.520;13.464;2023-04-03T04:24:05;0.70;99.90
37754;DHT22;23596;52.520;13.464;2023-04-03T04:26:31;0.60;99.90
37754;DHT22;23596;52.520;13.464;2023-04-03T04:28:57;0.50;99.90
37754;DHT22;23596;52.520;13.464;2023-04-03T04:31:22;0.70;99.90
37754;DHT22;23596;52.520;13.464;2023-04-03T04:33:48;0.60;99.90
37754;DHT22;23596;52.520;13.464;2023-04-03T04:36:14;0.60;99.90
37754;DHT22;23596;52.520;13.464;2023-04-03T04:38:40;0.60;99.90
37754;DHT22;23596;52.520;13.464;2023-04-03T04:41:06;0.70;99.90
37754;DHT22;23596;52.520;13.464;2023-04-03T04:43:31;0.60;99.90
37754;DHT22;23596;52.520;13.464;2023-04-03T04:46:05;0.60;99.90
37754;DHT22;23596;52.520;13.464;2023-04-03T04:48:31;0.60;99.90
37754;DHT22;23596;52.520;13.464;2023-04-03T04:50:56;0.60;99.90
37754;DHT22;23596;52.520;13.464;2023-04-03T04:53:22;0.60;99.90
37754;DHT22;23596;52.520;13.464;2023-04-03T04:55:48;0.90;99.90
37754;DHT22;23596;52.520;13.464;2023-04-03T04:58:13;0.60;99.90
37754;DHT22;23596;52.520;13.464;2023-04-03T05:00:39;0.60;99.90
37754;DHT22;23596;52.520;13.464;2023-04-03T05:03:05;0.70;99.90
37754;DHT22;23596;52.520;13.464;2023-04-03T05:05:31;0.70;99.90
37754;DHT22;23596;52.520;13.464;2023-04-03T05:07:56;0.60;99.90
37754;DHT22;23596;52.520;13.464;2023-04-03T05:10:22;0.70;99.90
37754;DHT22;23596;52.520;13.464;2023-04-03T05:12:48;0.70;99.90
37754;DHT22;23596;52.520;13.464;2023-04-03T05:15:14;0.70;99.90
37754;DHT22;23596;52.520;13.464;2023-04-03T05:17:39;0.70;99.90
37754;DHT22;23596;52.520;13.464;2023-04-03T05:20:05;0.70;99.90
37754;DHT22;23596;52.520;13.464;2023-04-03T05:25:53;0.80;99.90
37754;DHT22;23596;52.520;13.464;2023-04-03T05:28:18;0.70;99.90
37754;DHT22;23596;52.520;13.464;2023-04-03T05:30:44;0.70;99.90
37754;DHT22;23596;52.520;13.464;2023-04-03T05:33:10;0.70;99.90
37754;DHT22;23596;52.520;13.464;2023-04-03T05:35:37;0.70;99.90
37754;DHT22;23596;52.520;13.464;2023-04-03T05:38:05;0.80;99.90
37754;DHT22;23596;52.520;13.464;2023-04-03T05:40:31;0.80;99.90
37754;DHT22;23596;52.520;13.464;2023-04-03T05:42:57;0.80;99.90
37754;DHT22;23596;52.520;13.464;2023-04-03T05:45:22;0.90;99.90
37754;DHT22;23596;52.520;13.464;2023-04-03T05:47:48;0.90;99.90
37754;DHT22;23596;52.520;13.464;2023-04-03T05:50:14;0.80;99.90
37754;DHT22;23596;52.520;13.464;2023-04-03T05:52:43;0.90;99.90
37754;DHT22;23596;52.520;13.464;2023-04-03T05:55:09;0.90;99.90
37754;DHT22;23596;52.520;13.464;2023-04-03T05:57:35;1.00;99.90
37754;DHT22;23596;52.520;13.464;2023-04-03T06:00:01;0.90;99.90
37754;DHT22;23596;52.520;13.464;2023-04-03T06:02:26;1.00;99.90
37754;DHT22;23596;52.520;13.464;2023-04-03T06:04:52;1.10;99.90
37754;DHT22;23596;52.520;13.464;2023-04-03T06:07:20;1.10;99.90
37754;DHT22;23596;52.520;13.464;2023-04-03T06:09:48;1.10;99.90
37754;DHT22;23596;52.520;13.464;2023-04-03T06:12:14;1.10;99.90
37754;DHT22;23596;52.520;13.464;2023-04-03T06:14:40;1.20;99.90
37754;DHT22;23596;52.520;13.464;2023-04-03T06:17:06;1.30;99.90
37754;DHT22;23596;52.520;13.464;2023-04-03T06:19:33;1.30;99.90
37754;DHT22;23596;52.520;13.464;2023-04-03T06:21:59;1.30;99.90
37754;DHT22;23596;52.520;13.464;2023-04-03T06:24:25;1.30;99.90
37754;DHT22;23596;52.520;13.464;2023-04-03T06:26:52;1.40;99.90
37754;DHT22;23596;52.520;13.464;2023-04-03T06:29:19;1.40;99.90
37754;DHT22;23596;52.520;13.464;2023-04-03T06:31:45;1.50;99.90
37754;DHT22;23596;52.520;13.464;2023-04-03T06:34:10;1.50;99.90
37754;DHT22;23596;52.520;13.464;2023-04-03T06:36:37;1.60;99.90
37754;DHT22;23596;52.520;13.464;2023-04-03T06:39:04;1.60;99.90
37754;DHT22;23596;52.520;13.464;2023-04-03T06:41:30;1.60;99.90
37754;DHT22;23596;52.520;13.464;2023-04-03T06:43:55;1.70;99.90
37754;DHT22;23596;52.520;13.464;2023-04-03T06:46:23;1.70;99.90
37754;DHT22;23596;52.520;13.464;2023-04-03T06:48:49;1.80;99.90
37754;DHT22;23596;52.520;13.464;2023-04-03T06:51:21;1.80;99.90
37754;DHT22;23596;52.520;13.464;2023-04-03T06:53:47;1.90;99.90
37754;DHT22;23596;52.520;13.464;2023-04-03T06:56:13;1.90;99.90
37754;DHT22;23596;52.520;13.464;2023-04-03T06:58:39;2.30;99.90
37754;DHT22;23596;52.520;13.464;2023-04-03T07:01:06;1.90;99.90
37754;DHT22;23596;52.520;13.464;2023-04-03T07:03:31;1.90;99.90
37754;DHT22;23596;52.520;13.464;2023-04-03T07:05:57;1.90;99.90
37754;DHT22;23596;52.520;13.464;2023-04-03T07:08:22;2.00;99.90
37754;DHT22;23596;52.520;13.464;2023-04-03T07:10:49;2.00;99.90
37754;DHT22;23596;52.520;13.464;2023-04-03T07:13:15;2.00;99.90
37754;DHT22;23596;52.520;13.464;2023-04-03T07:15:41;2.00;99.90
37754;DHT22;23596;52.520;13.464;2023-04-03T07:18:06;2.10;99.90
37754;DHT22;23596;52.520;13.464;2023-04-03T07:20:32;2.20;99.90
37754;DHT22;23596;52.520;13.464;2023-04-03T07:22:58;2.20;99.90
37754;DHT22;23596;52.520;13.464;2023-04-03T07:25:25;2.30;99.90
37754;DHT22;23596;52.520;13.464;2023-04-03T07:27:50;2.40;99.90
37754;DHT22;23596;52.520;13.464;2023-04-03T07:30:16;2.40;99.90
37754;DHT22;23596;52.520;13.464;2023-04-03T07:32:41;2.50;99.90
37754;DHT22;23596;52.520;13.464;2023-04-03T07:35:07;2.70;99.90
37754;DHT22;23596;52.520;13.464;2023-04-03T07:37:33;2.70;99.90
37754;DHT22;23596;52.520;13.464;2023-04-03T07:39:58;2.70;99.90
37754;DHT22;23596;52.520;13.464;2023-04-03T07:42:25;3.00;99.90
37754;DHT22;23596;52.520;13.464;2023-04-03T07:44:53;2.70;99.90
37754;DHT22;23596;52.520;13.464;2023-04-03T07:47:19;2.70;99.90
37754;DHT22;23596;52.520;13.464;2023-04-03T07:49:45;2.80;99.90
37754;DHT22;23596;52.520;13.464;2023-04-03T07:52:11;2.80;99.90
37754;DHT22;23596;52.520;13.464;2023-04-03T07:54:37;2.90;99.90
37754;DHT22;23596;52.520;13.464;2023-04-03T07:57:03;2.90;99.90
37754;DHT22;23596;52.520;13.464;2023-04-03T07:59:29;2.90;99.90
37754;DHT22;23596;52.520;13.464;2023-04-03T08:01:55;3.00;99.90
37754;DHT22;23596;52.520;13.464;2023-04-03T08:04:20;3.00;99.90
37754;DHT22;23596;52.520;13.464;2023-04-03T08:06:46;3.00;99.90
37754;DHT22;23596;52.520;13.464;2023-04-03T08:09:12;3.10;99.90
37754;DHT22;23596;52.520;13.464;2023-04-03T08:11:39;3.20;99.90
37754;DHT22;23596;52.520;13.464;2023-04-03T08:14:05;3.20;99.90
37754;DHT22;23596;52.520;13.464;2023-04-03T08:16:30;3.30;99.90
37754;DHT22;23596;52.520;13.464;2023-04-03T08:18:56;3.60;99.90
37754;DHT22;23596;52.520;13.464;2023-04-03T08:21:22;3.40;99.90
37754;DHT22;23596;52.520;13.464;2023-04-03T08:23:49;3.50;99.90
37754;DHT22;23596;52.520;13.464;2023-04-03T08:26:18;3.50;99.90
37754;DHT22;23596;52.520;13.464;2023-04-03T08:28:45;3.50;99.90
37754;DHT22;23596;52.520;13.464;2023-04-03T08:31:16;3.60;99.90
37754;DHT22;23596;52.520;13.464;2023-04-03T08:33:43;3.70;99.90
37754;DHT22;23596;52.520;13.464;2023-04-03T08:36:18;3.70;99.90
37754;DHT22;23596;52.520;13.464;2023-04-03T08:38:44;3.70;99.90
37754;DHT22;23596;52.520;13.464;2023-04-03T08:41:20;3.70;99.90
37754;DHT22;23596;52.520;13.464;2023-04-03T08:43:56;3.70;99.90
37754;DHT22;23596;52.520;13.464;2023-04-03T08:46:32;3.70;99.90
37754;DHT22;23596;52.520;13.464;2023-04-03T08:48:59;3.70;99.90
37754;DHT22;23596;52.520;13.464;2023-04-03T08:51:26;3.70;99.90
37754;DHT22;23596;52.520;13.464;2023-04-03T08:54:04;3.70;99.90
37754;DHT22;23596;52.520;13.464;2023-04-03T08:56:33;3.80;99.90
37754;DHT22;23596;52.520;13.464;2023-04-03T08:59:00;3.70;99.90
37754;DHT22;23596;52.520;13.464;2023-04-03T09:01:34;3.80;99.90
37754;DHT22;23596;52.520;13.464;2023-04-03T09:04:02;3.80;99.90
37754;DHT22;23596;52.520;13.464;2023-04-03T09:06:31;3.80;99.90
37754;DHT22;23596;52.520;13.464;2023-04-03T09:09:17;3.80;99.90
37754;DHT22;23596;52.520;13.464;2023-04-03T09:17:35;3.90;99.90
37754;DHT22;23596;52.520;13.464;2023-04-03T09:20:19;3.90;99.90
37754;DHT22;23596;52.520;13.464;2023-04-03T09:22:46;4.10;99.90
37754;DHT22;23596;52.520;13.464;2023-04-03T09:25:25;4.20;99.90
37754;DHT22;23596;52.520;13.464;2023-04-03T09:27:53;4.30;99.90
37754;DHT22;23596;52.520;13.464;2023-04-03T09:30:21;4.50;99.90
37754;DHT22;23596;52.520;13.464;2023-04-03T09:32:49;4.40;99.90
37754;DHT22;23596;52.520;13.464;2023-04-03T09:35:29;4.50;99.90
37754;DHT22;23596;52.520;13.464;2023-04-03T09:40:41;4.60;99.90
37754;DHT22;23596;52.520;13.464;2023-04-03T09:45:46;4.70;99.90
37754;DHT22;23596;52.520;13.464;2023-04-03T09:50:52;4.90;99.90
37754;DHT22;23596;52.520;13.464;2023-04-03T09:53:43;4.80;99.90
37754;DHT22;23596;52.520;13.464;2023-04-03T09:58:49;4.80;99.90
37754;DHT22;23596;52.520;13.464;2023-04-03T10:01:31;4.80;99.90
37754;DHT22;23596;52.520;13.464;2023-04-03T10:06:40;4.70;99.90
37754;DHT22;23596;52.520;13.464;2023-04-03T10:09:17;4.80;99.90
37754;DHT22;23596;52.520;13.464;2023-04-03T10:11:59;4.80;99.90
37754;DHT22;23596;52.520;13.464;2023-04-03T10:14:28;4.90;99.90
37754;DHT22;23596;52.520;13.464;2023-04-03T10:19:55;4.90;99.90
37754;DHT22;23596;52.520;13.464;2023-04-03T10:22:59;5.00;99.90
37754;DHT22;23596;52.520;13.464;2023-04-03T10:25:38;5.00;99.90
37754;DHT22;23596;52.520;13.464;2023-04-03T10:28:18;5.00;99.90
37754;DHT22;23596;52.520;13.464;2023-04-03T10:42:15;5.30;99.90
37754;DHT22;23596;52.520;13.464;2023-04-03T10:45:03;5.40;99.90
37754;DHT22;23596;52.520;13.464;2023-04-03T10:58:51;5.70;99.90
37754;DHT22;23596;52.520;13.464;2023-04-03T11:01:23;5.80;99.90
37754;DHT22;23596;52.520;13.464;2023-04-03T11:03:54;5.90;99.90
37754;DHT22;23596;52.520;13.464;2023-04-03T11:06:25;5.90;99.90
37754;DHT22;23596;52.520;13.464;2023-04-03T11:08:55;5.80;99.90
37754;DHT22;23596;52.520;13.464;2023-04-03T11:11:29;5.90;99.90
37754;DHT22;23596;52.520;13.464;2023-04-03T11:16:48;5.80;99.90
37754;DHT22;23596;52.520;13.464;2023-04-03T11:19:26;5.70;99.90
37754;DHT22;23596;52.520;13.464;2023-04-03T11:21:57;5.70;99.90
37754;DHT22;23596;52.520;13.464;2023-04-03T11:24:27;5.80;99.90
37754;DHT22;23596;52.520;13.464;2023-04-03T11:26:56;5.70;99.90
37754;DHT22;23596;52.520;13.464;2023-04-03T11:29:35;5.80;99.90
37754;DHT22;23596;52.520;13.464;2023-04-03T11:34:49;5.80;99.90
37754;DHT22;23596;52.520;13.464;2023-04-03T11:37:31;5.80;99.90
37754;DHT22;23596;52.520;13.464;2023-04-03T11:40:20;5.80;99.90
37754;DHT22;23596;52.520;13.464;2023-04-03T11:42:49;5.80;99.90
37754;DHT22;23596;52.520;13.464;2023-04-03T11:45:25;5.80;99.90
37754;DHT22;23596;52.520;13.464;2023-04-03T11:48:03;5.80;99.90
37754;DHT22;23596;52.520;13.464;2023-04-03T12:05:54;6.10;99.90
37754;DHT22;23596;52.520;13.464;2023-04-03T12:08:27;6.10;99.90
37754;DHT22;23596;52.520;13.464;2023-04-03T12:11:29;6.10;99.90
37754;DHT22;23596;52.520;13.464;2023-04-03T12:21:23;6.10;99.90
37754;DHT22;23596;52.520;13.464;2023-04-03T12:24:27;6.00;99.90
37754;DHT22;23596;52.520;13.464;2023-04-03T12:40:35;6.40;99.90
37754;DHT22;23596;52.520;13.464;2023-04-03T12:48:57;6.60;99.90
37754;DHT22;23596;52.520;13.464;2023-04-03T12:51:28;6.60;99.90
37754;DHT22;23596;52.520;13.464;2023-04-03T12:54:01;6.60;99.90
37754;DHT22;23596;52.520;13.464;2023-04-03T12:56:30;6.60;99.90
37754;DHT22;23596;52.520;13.464;2023-04-03T12:59:14;6.50;99.70
37754;DHT22;23596;52.520;13.464;2023-04-03T13:01:40;6.50;99.90
37754;DHT22;23596;52.520;13.464;2023-04-03T13:04:06;6.50;99.80
37754;DHT22;23596;52.520;13.464;2023-04-03T13:06:38;6.40;99.90
37754;DHT22;23596;52.520;13.464;2023-04-03T13:09:14;6.40;99.90
37754;DHT22;23596;52.520;13.464;2023-04-03T13:11:44;6.50;99.90
37754;DHT22;23596;52.520;13.464;2023-04-03T13:14:22;6.60;99.90
37754;DHT22;23596;52.520;13.464;2023-04-03T13:16:56;6.60;99.90
37754;DHT22;23596;52.520;13.464;2023-04-03T13:19:25;6.60;99.90
37754;DHT22;23596;52.520;13.464;2023-04-03T13:21:59;6.40;99.90
37754;DHT22;23596;52.520;13.464;2023-04-03T13:24:27;6.40;99.90
37754;DHT22;23596;52.520;13.464;2023-04-03T13:26:54;6.30;99.90
37754;DHT22;23596;52.520;13.464;2023-04-03T13:29:27;6.30;99.90
37754;DHT22;23596;52.520;13.464;2023-04-03T13:31:54;6.30;99.90
37754;DHT22;23596;52.520;13.464;2023-04-03T13:34:23;6.20;99.90
37754;DHT22;23596;52.520;13.464;2023-04-03T13:36:58;6.20;99.90
37754;DHT22;23596;52.520;13.464;2023-04-03T13:39:29;6.30;99.90
37754;DHT22;23596;52.520;13.464;2023-04-03T13:42:00;6.20;99.90
37754;DHT22;23596;52.520;13.464;2023-04-03T13:44:35;6.30;99.90
37754;DHT22;23596;52.520;13.464;2023-04-03T13:49:38;6.20;99.90
37754;DHT22;23596;52.520;13.464;2023-04-03T13:52:25;6.20;99.90
37754;DHT22;23596;52.520;13.464;2023-04-03T13:54:55;6.20;99.90
37754;DHT22;23596;52.520;13.464;2023-04-03T13:57:22;6.20;99.90
37754;DHT22;23596;52.520;13.464;2023-04-03T13:59:48;6.20;99.90
37754;DHT22;23596;52.520;13.464;2023-04-03T14:02:17;6.10;99.90
37754;DHT22;23596;52.520;13.464;2023-04-03T14:07:09;6.30;99.90
37754;DHT22;23596;52.520;13.464;2023-04-03T14:09:36;6.30;99.90
37754;DHT22;23596;52.520;13.464;2023-04-03T14:12:07;6.20;99.90
37754;DHT22;23596;52.520;13.464;2023-04-03T14:14:35;6.40;99.90
37754;DHT22;23596;52.520;13.464;2023-04-03T14:17:03;6.50;99.90
37754;DHT22;23596;52.520;13.464;2023-04-03T14:19:36;6.50;99.90
37754;DHT22;23596;52.520;13.464;2023-04-03T14:22:17;6.40;99.90
37754;DHT22;23596;52.520;13.464;2023-04-03T14:24:44;6.40;99.90
37754;DHT22;23596;52.520;13.464;2023-04-03T14:27:33;6.50;99.90
37754;DHT22;23596;52.520;13.464;2023-04-03T14:29:59;6.90;99.90
37754;DHT22;23596;52.520;13.464;2023-04-03T14:32:26;7.80;99.90
37754;DHT22;23596;52.520;13.464;2023-04-03T14:34:52;8.50;99.50
37754;DHT22;23596;52.520;13.464;2023-04-03T14:37:22;8.60;99.20
37754;DHT22;23596;52.520;13.464;2023-04-03T14:39:49;8.40;98.70
37754;DHT22;23596;52.520;13.464;2023-04-03T14:42:28;8.10;98.90
37754;DHT22;23596;52.520;13.464;2023-04-03T14:44:55;7.70;99.40
37754;DHT22;23596;52.520;13.464;2023-04-03T14:47:24;7.30;99.90
37754;DHT22;23596;52.520;13.464;2023-04-03T14:49:51;7.10;99.90
37754;DHT22;23596;52.520;13.464;2023-04-03T14:54:48;6.70;99.90
37754;DHT22;23596;52.520;13.464;2023-04-03T14:57:16;6.60;99.90
37754;DHT22;23596;52.520;13.464;2023-04-03T14:59:43;6.50;99.90
37754;DHT22;23596;52.520;13.464;2023-04-03T15:02:29;6.40;99.90
37754;DHT22;23596;52.520;13.464;2023-04-03T15:04:55;6.30;99.90
37754;DHT22;23596;52.520;13.464;2023-04-03T15:07:22;6.20;99.90
37754;DHT22;23596;52.520;13.464;2023-04-03T15:09:49;6.10;99.90
37754;DHT22;23596;52.520;13.464;2023-04-03T15:12:16;6.00;99.90
37754;DHT22;23596;52.520;13.464;2023-04-03T15:14:41;5.90;99.90
37754;DHT22;23596;52.520;13.464;2023-04-03T15:17:15;5.80;99.90
37754;DHT22;23596;52.520;13.464;2023-04-03T15:19:42;5.80;99.90
37754;DHT22;23596;52.520;13.464;2023-04-03T15:22:13;5.70;99.90
37754;DHT22;23596;52.520;13.464;2023-04-03T15:24:39;5.70;99.90
37754;DHT22;23596;52.520;13.464;2023-04-03T15:27:05;5.70;99.90
37754;DHT22;23596;52.520;13.464;2023-04-03T15:29:30;5.70;99.90
37754;DHT22;23596;52.520;13.464;2023-04-03T15:31:56;5.60;99.90
37754;DHT22;23596;52.520;13.464;2023-04-03T15:34:21;5.70;99.90
37754;DHT22;23596;52.520;13.464;2023-04-03T15:36:47;5.60;99.90
37754;DHT22;23596;52.520;13.464;2023-04-03T15:39:13;5.60;99.90
37754;DHT22;23596;52.520;13.464;2023-04-03T15:41:38;5.50;99.90
37754;DHT22;23596;52.520;13.464;2023-04-03T15:44:04;5.60;99.90
37754;DHT22;23596;52.520;13.464;2023-04-03T15:46:30;5.50;99.90
37754;DHT22;23596;52.520;13.464;2023-04-03T15:48:55;5.60;99.90
37754;DHT22;23596;52.520;13.464;2023-04-03T15:51:21;5.60;99.90
37754;DHT22;23596;52.520;13.464;2023-04-03T15:53:46;5.60;99.90
37754;DHT22;23596;52.520;13.464;2023-04-03T15:56:12;5.60;99.90
37754;DHT22;23596;52.520;13.464;2023-04-03T15:58:38;5.60;99.90
37754;DHT22;23596;52.520;13.464;2023-04-03T16:01:03;5.60;99.90
37754;DHT22;23596;52.520;13.464;2023-04-03T16:03:29;5.40;99.90
37754;DHT22;23596;52.520;13.464;2023-04-03T16:05:55;5.40;99.90
37754;DHT22;23596;52.520;13.464;2023-04-03T16:08:21;5.90;99.90
37754;DHT22;23596;52.520;13.464;2023-04-03T16:10:46;6.80;99.90
37754;DHT22;23596;52.520;13.464;2023-04-03T16:13:13;7.30;99.90
37754;DHT22;23596;52.520;13.464;2023-04-03T16:15:39;7.90;99.90
37754;DHT22;23596;52.520;13.464;2023-04-03T16:18:05;8.30;99.90
37754;DHT22;23596;52.520;13.464;2023-04-03T16:20:31;8.40;99.90
37754;DHT22;23596;52.520;13.464;2023-04-03T16:22:58;8.30;99.90
37754;DHT22;23596;52.520;13.464;2023-04-03T16:25:25;8.10;99.90
37754;DHT22;23596;52.520;13.464;2023-04-03T16:27:51;7.90;99.90
37754;DHT22;23596;52.520;13.464;2023-04-03T16:30:17;7.80;99.90
37754;DHT22;23596;52.520;13.464;2023-04-03T16:32:43;7.60;99.90
37754;DHT22;23596;52.520;13.464;2023-04-03T16:35:09;7.30;99.90
37754;DHT22;23596;52.520;13.464;2023-04-03T16:37:39;7.10;99.90
37754;DHT22;23596;52.520;13.464;2023-04-03T16:40:06;6.90;99.90
37754;DHT22;23596;52.520;13.464;2023-04-03T16:42:32;6.70;99.90
37754;DHT22;23596;52.520;13.464;2023-04-03T16:44:58;6.60;99.90
37754;DHT22;23596;52.520;13.464;2023-04-03T16:47:25;6.40;99.90
37754;DHT22;23596;52.520;13.464;2023-04-03T16:49:50;6.20;99.90
37754;DHT22;23596;52.520;13.464;2023-04-03T16:52:16;6.20;99.90
37754;DHT22;23596;52.520;13.464;2023-04-03T16:54:42;6.10;99.90
37754;DHT22;23596;52.520;13.464;2023-04-03T16:57:07;5.90;99.90
37754;DHT22;23596;52.520;13.464;2023-04-03T16:59:33;5.80;99.90
37754;DHT22;23596;52.520;13.464;2023-04-03T17:01:58;5.70;99.90
37754;DHT22;23596;52.520;13.464;2023-04-03T17:04:24;5.60;99.90
37754;DHT22;23596;52.520;13.464;2023-04-03T17:06:50;5.50;99.90
37754;DHT22;23596;52.520;13.464;2023-04-03T17:09:17;5.60;99.90
37754;DHT22;23596;52.520;13.464;2023-04-03T17:11:42;5.50;99.90
37754;DHT22;23596;52.520;13.464;2023-04-03T17:14:08;5.50;99.90
37754;DHT22;23596;52.520;13.464;2023-04-03T17:16:35;5.50;99.90
37754;DHT22;23596;52.520;13.464;2023-04-03T17:19:02;5.50;99.90
37754;DHT22;23596;52.520;13.464;2023-04-03T17:21:28;5.60;99.90
37754;DHT22;23596;52.520;13.464;2023-04-03T17:23:57;5.40;99.90
37754;DHT22;23596;52.520;13.464;2023-04-03T17:26:25;5.30;99.90
37754;DHT22;23596;52.520;13.464;2023-04-03T17:28:51;5.30;99.90
37754;DHT22;23596;52.520;13.464;2023-04-03T17:31:17;5.30;99.90
37754;DHT22;23596;52.520;13.464;2023-04-03T17:33:42;5.20;99.90
37754;DHT22;23596;52.520;13.464;2023-04-03T17:36:08;5.20;99.90